createdAt,value
2022-12-28T00:01:37.674Z,4.95
2022-12-28T00:04:26.791Z,5.08
2022-12-28T00:07:14.447Z,5.08
2022-12-28T00:10:02.203Z,5.21
2022-12-28T00:12:49.841Z,5.17
2022-12-28T00:15:38.749Z,5.16
2022-12-28T00:18:26.310Z,5.20
2022-12-28T00:21:15.392Z,5.11
2022-12-28T00:24:03.372Z,5.07
2022-12-28T00:26:52.101Z,5.11
2022-12-28T00:29:42.444Z,4.97
2022-12-28T00:32:30.149Z,5.06
2022-12-28T00:35:18.217Z,5.08
2022-12-28T00:38:07.411Z,5.13
2022-12-28T00:40:55.019Z,5.09
2022-12-28T00:43:44.817Z,4.98
2022-12-28T00:46:32.604Z,4.98
2022-12-28T00:49:20.532Z,5.10
2022-12-28T00:52:08.142Z,5.11
2022-12-28T00:54:57.152Z,5.01
2022-12-28T00:57:45.073Z,5.05
2022-12-28T01:00:33.158Z,5.10
2022-12-28T01:03:21.179Z,5.13
2022-12-28T01:06:10.307Z,5.15
2022-12-28T01:08:58.371Z,5.29
2022-12-28T01:11:49.107Z,5.22
2022-12-28T01:14:36.769Z,5.27
2022-12-28T01:17:24.825Z,5.32
2022-12-28T01:20:13.122Z,5.44
2022-12-28T01:23:00.746Z,5.37
2022-12-28T01:25:48.252Z,5.45
2022-12-28T01:28:37.898Z,5.38
2022-12-28T01:31:25.996Z,5.38
2022-12-28T01:34:13.601Z,5.40
2022-12-28T01:37:01.212Z,5.40
2022-12-28T01:39:49.101Z,5.43
2022-12-28T01:42:40.454Z,5.63
2022-12-28T01:45:29.992Z,5.69
2022-12-28T01:48:23.081Z,5.78
2022-12-28T01:51:11.010Z,5.56
2022-12-28T01:54:01.653Z,5.49
2022-12-28T01:56:49.981Z,5.55
2022-12-28T01:59:41.010Z,5.57
2022-12-28T02:02:31.900Z,5.61
2022-12-28T02:05:20.731Z,5.58
2022-12-28T02:08:14.862Z,5.65
2022-12-28T02:11:03.398Z,5.48
2022-12-28T02:13:53.781Z,5.53
2022-12-28T02:16:43.231Z,5.47
2022-12-28T02:19:41.647Z,5.66
2022-12-28T02:23:10.440Z,5.50
2022-12-28T02:26:33.897Z,5.44
2022-12-28T02:29:50.036Z,5.36
2022-12-28T02:33:00.237Z,5.32
2022-12-28T02:35:55.075Z,5.36
2022-12-28T02:38:48.092Z,5.35
2022-12-28T02:41:39.563Z,5.28
2022-12-28T02:44:48.752Z,5.37
2022-12-28T02:47:55.645Z,5.37
2022-12-28T02:50:53.571Z,5.44
2022-12-28T02:53:55.440Z,5.42
2022-12-28T02:56:52.149Z,5.50
2022-12-28T02:59:57.180Z,5.55
2022-12-28T03:03:11.569Z,5.53
2022-12-28T03:06:32.873Z,5.41
2022-12-28T03:09:28.677Z,5.60
2022-12-28T03:12:22.171Z,5.55
2022-12-28T03:15:29.967Z,5.67
2022-12-28T03:18:39.368Z,5.63
2022-12-28T03:21:47.842Z,5.67
2022-12-28T03:24:55.495Z,5.70
2022-12-28T03:28:05.788Z,5.67
2022-12-28T03:31:08.394Z,5.73
2022-12-28T03:34:07.945Z,5.64
2022-12-28T03:37:14.726Z,5.77
2022-12-28T03:40:10.591Z,5.79
2022-12-28T03:43:21.148Z,5.93
2022-12-28T03:46:17.889Z,6.01
2022-12-28T03:49:05.960Z,5.93
2022-12-28T03:51:55.423Z,5.95
2022-12-28T03:54:45.397Z,6.10
2022-12-28T03:57:35.597Z,6.00
2022-12-28T04:00:25.817Z,6.02
2022-12-28T04:03:16.316Z,6.01
2022-12-28T04:06:04.426Z,6.07
2022-12-28T04:08:52.038Z,6.23
2022-12-28T04:11:39.856Z,6.30
2022-12-28T04:14:30.016Z,6.14
2022-12-28T04:17:18.385Z,6.18
2022-12-28T04:20:08.651Z,6.19
2022-12-28T04:22:56.290Z,6.31
2022-12-28T04:25:44.245Z,6.21
2022-12-28T04:28:32.884Z,6.19
2022-12-28T04:31:39.417Z,6.31
2022-12-28T04:34:30.940Z,6.37
2022-12-28T04:37:26.267Z,6.45
2022-12-28T04:40:14.723Z,6.37
2022-12-28T04:43:02.315Z,6.40
2022-12-28T04:45:57.819Z,6.34
2022-12-28T04:48:45.303Z,6.31
2022-12-28T04:51:32.612Z,6.22
2022-12-28T04:54:21.595Z,6.25
2022-12-28T04:57:09.076Z,6.25
2022-12-28T04:59:56.245Z,6.28
2022-12-28T05:02:46.344Z,6.31
2022-12-28T05:05:34.435Z,6.31
2022-12-28T05:08:22.004Z,6.39
2022-12-28T05:11:14.104Z,6.50
2022-12-28T05:14:01.637Z,6.44
2022-12-28T05:16:52.404Z,6.44
2022-12-28T05:19:39.979Z,6.46
2022-12-28T05:22:27.735Z,6.44
2022-12-28T05:25:15.339Z,6.60
2022-12-28T05:28:04.408Z,6.55
2022-12-28T05:30:52.885Z,6.60
2022-12-28T05:33:40.389Z,6.55
2022-12-28T05:36:28.808Z,6.58
2022-12-28T05:39:16.448Z,6.52
2022-12-28T05:42:04.204Z,6.46
2022-12-28T05:44:53.440Z,6.60
2022-12-28T05:47:41.115Z,6.58
2022-12-28T05:50:28.482Z,6.49
2022-12-28T05:53:16.305Z,6.49
2022-12-28T05:56:10.688Z,6.36
2022-12-28T05:59:03.229Z,6.25
2022-12-28T06:01:52.119Z,6.25
2022-12-28T06:04:39.860Z,6.19
2022-12-28T06:07:27.347Z,6.18
2022-12-28T06:10:14.792Z,6.19
2022-12-28T06:13:02.850Z,6.15
2022-12-28T06:15:50.432Z,6.08
2022-12-28T06:18:39.819Z,6.19
2022-12-28T06:21:29.067Z,6.19
2022-12-28T06:24:18.241Z,6.10
2022-12-28T06:27:05.762Z,6.13
2022-12-28T06:29:53.381Z,6.23
2022-12-28T06:32:40.746Z,6.26
2022-12-28T06:35:29.485Z,6.24
2022-12-28T06:38:16.823Z,6.35
2022-12-28T06:41:13.857Z,6.27
2022-12-28T06:44:02.357Z,6.40
2022-12-28T06:46:50.071Z,6.41
2022-12-28T06:49:37.923Z,6.49
2022-12-28T06:52:26.935Z,6.38
2022-12-28T06:55:14.946Z,6.32
2022-12-28T06:58:03.834Z,6.42
2022-12-28T07:00:54.260Z,6.45
2022-12-28T07:03:42.153Z,6.49
2022-12-28T07:06:30.678Z,6.38
2022-12-28T07:09:19.687Z,6.39
2022-12-28T07:12:07.593Z,6.37
2022-12-28T07:14:55.164Z,6.45
2022-12-28T07:17:42.633Z,6.51
2022-12-28T07:20:32.113Z,6.51
2022-12-28T07:23:22.904Z,6.41
2022-12-28T07:26:14.020Z,6.50
2022-12-28T07:29:04.654Z,6.56
2022-12-28T07:31:52.242Z,6.57
2022-12-28T07:34:39.575Z,6.56
2022-12-28T07:37:27.098Z,6.61
2022-12-28T07:40:14.562Z,6.71
2022-12-28T07:43:03.465Z,6.78
2022-12-28T07:45:51.878Z,6.75
2022-12-28T07:48:40.303Z,6.86
2022-12-28T07:51:29.478Z,6.89
2022-12-28T07:54:17.337Z,6.85
2022-12-28T07:57:05.566Z,6.88
2022-12-28T07:59:54.535Z,6.94
2022-12-28T08:02:41.900Z,6.98
2022-12-28T08:05:29.366Z,7.02
2022-12-28T08:08:17.014Z,7.07
2022-12-28T08:11:06.261Z,7.09
2022-12-28T08:13:55.804Z,7.16
2022-12-28T08:16:46.020Z,7.20
2022-12-28T08:19:33.685Z,7.17
2022-12-28T08:22:21.562Z,7.20
2022-12-28T08:25:09.703Z,7.27
2022-12-28T08:27:57.213Z,7.33
2022-12-28T08:30:44.981Z,7.45
2022-12-28T08:33:34.282Z,7.46
2022-12-28T08:36:21.796Z,7.50
2022-12-28T08:39:10.680Z,7.55
2022-12-28T08:41:58.329Z,7.55
2022-12-28T08:44:46.036Z,7.65
2022-12-28T08:47:34.074Z,7.70
2022-12-28T08:50:29.520Z,7.69
2022-12-28T08:53:18.977Z,7.66
2022-12-28T08:56:07.770Z,7.68
2022-12-28T08:58:55.898Z,7.66
2022-12-28T09:01:44.868Z,7.63
2022-12-28T09:04:32.604Z,7.64
2022-12-28T09:07:21.733Z,7.67
2022-12-28T09:10:10.197Z,7.64
2022-12-28T09:12:57.986Z,7.74
2022-12-28T09:15:45.356Z,7.70
2022-12-28T09:18:33.722Z,7.69
2022-12-28T09:21:22.517Z,7.72
2022-12-28T09:24:14.480Z,7.76
2022-12-28T09:27:01.907Z,7.67
2022-12-28T09:29:49.718Z,7.68
2022-12-28T09:32:37.112Z,7.72
2022-12-28T09:35:24.325Z,7.76
2022-12-28T09:38:11.685Z,7.71
2022-12-28T09:41:00.983Z,7.74
2022-12-28T09:43:48.923Z,7.83
2022-12-28T09:46:43.903Z,7.89
2022-12-28T09:49:41.592Z,7.91
2022-12-28T09:52:31.973Z,7.93
2022-12-28T09:55:20.888Z,7.93
2022-12-28T09:58:16.633Z,7.98
2022-12-28T10:01:06.415Z,8.07
2022-12-28T10:03:54.295Z,8.03
2022-12-28T10:06:41.836Z,7.95
2022-12-28T10:09:32.291Z,7.91
2022-12-28T10:12:24.564Z,7.93
2022-12-28T10:15:15.035Z,7.91
2022-12-28T10:18:02.706Z,8.05
2022-12-28T10:20:50.423Z,8.02
2022-12-28T10:23:56.857Z,8.04
2022-12-28T10:26:49.147Z,8.08
2022-12-28T10:29:36.594Z,8.02
2022-12-28T10:32:25.575Z,8.03
2022-12-28T10:35:24.244Z,8.04
2022-12-28T10:38:23.755Z,7.93
2022-12-28T10:41:14.608Z,7.84
2022-12-28T10:47:31.900Z,7.76
2022-12-28T10:50:42.394Z,7.89
2022-12-28T10:53:33.666Z,7.98
2022-12-28T10:56:26.986Z,8.10
2022-12-28T10:59:25.694Z,8.02
2022-12-28T11:02:25.615Z,8.02
2022-12-28T11:05:22.827Z,8.01
2022-12-28T11:08:15.626Z,8.02
2022-12-28T11:11:03.565Z,8.05
2022-12-28T11:13:55.683Z,7.98
2022-12-28T11:16:44.522Z,7.95
2022-12-28T11:19:32.375Z,7.96
2022-12-28T11:22:25.654Z,7.90
2022-12-28T11:25:16.478Z,7.98
2022-12-28T11:28:07.692Z,8.01
2022-12-28T11:30:55.748Z,8.01
2022-12-28T11:33:45.623Z,8.03
2022-12-28T11:36:39.212Z,7.94
2022-12-28T11:39:46.489Z,7.95
2022-12-28T11:42:54.503Z,8.00
2022-12-28T11:46:03.636Z,8.00
2022-12-28T11:48:59.258Z,8.03
2022-12-28T11:51:46.693Z,8.00
2022-12-28T11:54:39.403Z,7.98
2022-12-28T11:57:41.603Z,8.02
2022-12-28T12:00:50.090Z,8.13
2022-12-28T12:04:12.012Z,8.19
2022-12-28T12:07:31.576Z,8.31
2022-12-28T12:10:39.182Z,8.45
2022-12-28T12:13:49.296Z,8.47
2022-12-28T12:16:51.658Z,8.55
2022-12-28T12:19:42.684Z,8.63
2022-12-28T12:22:34.461Z,8.78
2022-12-28T12:25:26.419Z,8.75
2022-12-28T12:28:28.191Z,8.75
2022-12-28T12:31:20.408Z,8.77
2022-12-28T12:34:19.268Z,8.72
2022-12-28T12:37:32.778Z,8.80
2022-12-28T12:40:48.295Z,8.85
2022-12-28T12:43:47.923Z,8.87
2022-12-28T12:47:05.432Z,8.92
2022-12-28T12:50:32.065Z,8.84
2022-12-28T12:53:36.723Z,8.98
2022-12-28T12:56:39.601Z,9.00
2022-12-28T12:59:50.267Z,9.05
2022-12-28T13:03:21.166Z,8.99
2022-12-28T13:06:09.872Z,9.04
2022-12-28T13:09:05.269Z,9.15
2022-12-28T13:11:54.157Z,9.08
2022-12-28T13:14:45.757Z,9.09
2022-12-28T13:17:33.120Z,9.12
2022-12-28T13:20:23.602Z,9.05
2022-12-28T13:23:17.340Z,9.15
2022-12-28T13:26:05.014Z,9.08
2022-12-28T13:28:57.219Z,9.09
2022-12-28T13:31:49.887Z,9.10
2022-12-28T13:34:39.052Z,9.11
2022-12-28T13:37:28.097Z,9.15
2022-12-28T13:40:18.070Z,9.18
2022-12-28T13:43:51.012Z,9.04
2022-12-28T13:46:40.870Z,9.01
2022-12-28T13:49:29.894Z,8.99
2022-12-28T13:52:24.816Z,9.07
2022-12-28T13:55:17.887Z,9.06
2022-12-28T13:58:11.591Z,9.01
2022-12-28T14:01:01.924Z,9.05
2022-12-28T14:03:50.482Z,9.06
2022-12-28T14:06:38.486Z,9.11
2022-12-28T14:09:26.145Z,9.03
2022-12-28T14:12:15.928Z,9.08
2022-12-28T14:15:03.781Z,9.01
2022-12-28T14:17:53.713Z,8.90
2022-12-28T14:20:48.700Z,9.03
2022-12-28T14:23:39.065Z,9.09
2022-12-28T14:26:27.573Z,9.00
2022-12-28T14:29:23.128Z,9.03
2022-12-28T14:32:17.193Z,8.91
2022-12-28T14:35:05.383Z,8.86
2022-12-28T14:37:55.590Z,8.85
2022-12-28T14:40:43.497Z,8.82
2022-12-28T14:43:34.078Z,8.74
2022-12-28T14:46:33.321Z,8.61
2022-12-28T14:49:36.892Z,8.58
2022-12-28T14:52:47.364Z,8.57
2022-12-28T14:55:40.800Z,8.56
2022-12-28T14:58:31.665Z,8.56
2022-12-28T15:01:21.260Z,8.57
2022-12-28T15:04:27.919Z,8.43
2022-12-28T15:07:16.744Z,8.36
2022-12-28T15:10:06.192Z,8.29
2022-12-28T15:12:54.732Z,8.19
2022-12-28T15:15:42.542Z,8.36
2022-12-28T15:18:31.035Z,8.34
2022-12-28T15:21:21.963Z,8.41
2022-12-28T15:24:09.935Z,8.43
2022-12-28T15:26:57.209Z,8.40
2022-12-28T15:30:04.912Z,8.32
2022-12-28T15:32:53.145Z,8.36
2022-12-28T15:35:40.992Z,8.40
2022-12-28T15:38:30.068Z,8.31
2022-12-28T15:41:35.810Z,8.44
2022-12-28T15:44:23.187Z,8.39
2022-12-28T15:47:10.793Z,8.37
2022-12-28T15:50:00.845Z,8.45
2022-12-28T15:52:48.785Z,8.46
2022-12-28T15:55:39.028Z,8.57
2022-12-28T15:58:26.586Z,8.55
2022-12-28T16:01:14.652Z,8.60
2022-12-28T16:04:03.735Z,8.51
2022-12-28T16:06:51.812Z,8.50
2022-12-28T16:09:39.588Z,8.63
2022-12-28T16:12:28.775Z,8.60
2022-12-28T16:15:16.187Z,8.57
2022-12-28T16:18:04.121Z,8.67
2022-12-28T16:20:51.776Z,8.65
2022-12-28T16:23:41.485Z,8.71
2022-12-28T16:26:29.614Z,8.80
2022-12-28T16:29:18.493Z,8.88
2022-12-28T16:32:06.385Z,8.94
2022-12-28T16:34:56.202Z,8.85
2022-12-28T16:37:43.727Z,8.84
2022-12-28T16:40:31.752Z,8.87
2022-12-28T16:43:19.516Z,8.85
2022-12-28T16:46:10.185Z,8.89
2022-12-28T16:48:57.705Z,8.90
2022-12-28T16:51:46.749Z,8.90
2022-12-28T16:54:34.475Z,8.91
2022-12-28T16:57:22.006Z,8.76
2022-12-28T17:00:10.886Z,8.74
2022-12-28T17:03:00.844Z,8.90
2022-12-28T17:05:51.180Z,8.93
2022-12-28T17:08:38.732Z,8.85
2022-12-28T17:11:26.719Z,8.90
2022-12-28T17:14:17.429Z,8.91
2022-12-28T17:17:12.512Z,8.97
2022-12-28T17:20:01.500Z,8.87
2022-12-28T17:22:49.436Z,8.91
2022-12-28T17:25:37.525Z,9.01
2022-12-28T17:28:25.548Z,8.94
2022-12-28T17:31:15.869Z,8.89
2022-12-28T17:34:06.478Z,8.91
2022-12-28T17:36:55.875Z,8.97
2022-12-28T17:39:43.724Z,9.06
2022-12-28T17:42:31.121Z,9.03
2022-12-28T17:45:18.771Z,8.94
2022-12-28T17:48:07.127Z,9.04
2022-12-28T17:50:54.662Z,9.08
2022-12-28T17:53:43.767Z,9.04
2022-12-28T17:56:31.256Z,9.08
2022-12-28T17:59:19.104Z,8.95
2022-12-28T18:02:10.317Z,8.98
2022-12-28T18:04:57.975Z,9.10
2022-12-28T18:07:45.679Z,9.09
2022-12-28T18:10:34.555Z,9.12
2022-12-28T18:13:22.234Z,9.21
2022-12-28T18:16:13.300Z,9.14
2022-12-28T18:19:00.818Z,9.10
2022-12-28T18:21:49.082Z,9.23
2022-12-28T18:24:36.519Z,9.20
2022-12-28T18:27:25.682Z,9.23
2022-12-28T18:30:13.896Z,9.19
2022-12-28T18:33:01.635Z,9.17
2022-12-28T18:35:49.094Z,9.19
2022-12-28T18:38:43.731Z,9.21
2022-12-28T18:41:34.236Z,9.19
2022-12-28T18:44:23.609Z,9.32
2022-12-28T18:47:11.395Z,9.21
2022-12-28T18:49:59.005Z,9.17
2022-12-28T18:52:48.392Z,8.99
2022-12-28T18:55:35.987Z,9.03
2022-12-28T18:58:23.225Z,8.94
2022-12-28T19:01:32.915Z,8.84
2022-12-28T19:04:22.308Z,8.72
2022-12-28T19:07:10.228Z,8.73
2022-12-28T19:10:13.554Z,8.74
2022-12-28T19:13:01.395Z,8.75
2022-12-28T19:15:48.962Z,8.65
2022-12-28T19:18:38.353Z,8.56
2022-12-28T19:21:28.371Z,8.50
2022-12-28T19:24:18.234Z,8.44
2022-12-28T19:27:05.906Z,8.54
2022-12-28T19:29:53.643Z,8.49
2022-12-28T19:32:41.641Z,8.50
2022-12-28T19:35:30.896Z,8.33
2022-12-28T19:38:18.370Z,8.31
2022-12-28T19:41:07.825Z,8.32
2022-12-28T19:43:55.545Z,8.34
2022-12-28T19:46:43.327Z,8.36
2022-12-28T19:49:33.617Z,8.37
2022-12-28T19:52:25.029Z,8.41
2022-12-28T19:55:12.479Z,8.32
2022-12-28T19:58:00.244Z,8.46
2022-12-28T20:00:48.145Z,8.39
2022-12-28T20:03:36.722Z,8.31
2022-12-28T20:06:27.388Z,8.36
2022-12-28T20:09:16.797Z,8.34
2022-12-28T20:12:04.397Z,8.28
2022-12-28T20:14:51.764Z,8.26
2022-12-28T20:17:46.865Z,8.20
2022-12-28T20:21:00.908Z,8.16
2022-12-28T20:23:42.919Z,8.23
2022-12-28T20:26:32.932Z,8.22
2022-12-28T20:29:20.995Z,8.15
2022-12-28T20:32:08.627Z,8.16
2022-12-28T20:34:56.266Z,8.18
2022-12-28T20:37:43.736Z,8.15
2022-12-28T20:40:31.549Z,8.12
2022-12-28T20:43:25.355Z,8.16
2022-12-28T20:46:13.079Z,8.12
2022-12-28T20:49:00.684Z,8.13
2022-12-28T20:51:48.192Z,8.07
2022-12-28T20:54:36.222Z,8.09
2022-12-28T20:57:25.265Z,7.98
2022-12-28T21:00:15.560Z,8.10
2022-12-28T21:03:03.222Z,8.04
2022-12-28T21:05:50.826Z,8.15
2022-12-28T21:08:38.408Z,8.15
2022-12-28T21:11:26.297Z,8.10
2022-12-28T21:14:14.272Z,8.05
2022-12-28T21:17:03.657Z,8.09
2022-12-28T21:19:51.565Z,8.06
2022-12-28T21:22:39.367Z,8.11
2022-12-28T21:25:26.872Z,8.09
2022-12-28T21:28:14.502Z,8.13
2022-12-28T21:31:05.055Z,8.13
2022-12-28T21:33:58.956Z,8.12
2022-12-28T21:36:46.581Z,8.18
2022-12-28T21:39:34.233Z,8.23
2022-12-28T21:42:21.637Z,8.29
2022-12-28T21:45:10.296Z,8.32
2022-12-28T21:47:57.977Z,8.40
2022-12-28T21:50:46.885Z,8.48
2022-12-28T21:53:34.760Z,8.52
2022-12-28T21:56:22.402Z,8.60
2022-12-28T21:59:11.199Z,8.60
2022-12-28T22:02:16.477Z,8.60
2022-12-28T22:05:22.964Z,8.68
2022-12-28T22:08:29.942Z,8.67
2022-12-28T22:11:37.891Z,8.71
2022-12-28T22:14:28.146Z,8.80
2022-12-28T22:17:15.837Z,8.76
2022-12-28T22:20:03.361Z,8.83
2022-12-28T22:22:50.936Z,8.94
2022-12-28T22:25:40.202Z,8.99
2022-12-28T22:28:27.876Z,9.03
2022-12-28T22:31:15.442Z,8.96
2022-12-28T22:34:06.992Z,9.04
2022-12-28T22:36:55.213Z,8.98
2022-12-28T22:39:42.917Z,9.05
2022-12-28T22:42:31.928Z,9.23
2022-12-28T22:45:21.325Z,9.24
2022-12-28T22:48:08.686Z,9.36
2022-12-28T22:50:56.096Z,9.38
2022-12-28T22:53:44.662Z,9.42
2022-12-28T22:56:32.249Z,9.34
2022-12-28T22:59:21.542Z,9.38
2022-12-28T23:02:09.442Z,9.42
2022-12-28T23:04:57.835Z,9.35
2022-12-28T23:07:45.526Z,9.37
2022-12-28T23:10:33.046Z,9.31
2022-12-28T23:13:20.335Z,9.44
2022-12-28T23:16:09.035Z,9.43
2022-12-28T23:19:14.257Z,9.43
2022-12-28T23:22:20.718Z,9.51
2022-12-28T23:25:29.739Z,9.54
2022-12-28T23:28:17.948Z,9.56
2022-12-28T23:31:05.672Z,9.54
2022-12-28T23:33:55.049Z,9.63
2022-12-28T23:36:42.569Z,9.58
2022-12-28T23:39:30.005Z,9.73
2022-12-28T23:42:17.613Z,9.69
2022-12-28T23:45:05.686Z,9.66
2022-12-28T23:47:54.348Z,9.73
2022-12-28T23:50:43.334Z,9.73
2022-12-28T23:53:30.917Z,9.71
2022-12-28T23:56:18.172Z,9.74
2022-12-28T23:59:05.924Z,9.81
